• Join FlightAware (Why Join?)
  • Login
  • US Flag 
01:13AM EDT


 

Airport Tracker/Info


-or-


 

Live Flight TrackerFlight Track Log ✈ AWE1600 ✈ 25-Mar-2014 ✈ KOKC - KDFW

Flight Track Log - Related Links

Times and Time Zones

All times are in EDT time to prevent confusion due to time zone crossing. See the AWE1600 flight status page for this flight to view local times or setup timezone preferences in your user account.

Time Position Orientation Groundspeed Altitude Reporting Facility
EDT Latitude Longitude Course Direction KTS MPH feet Rate Location/Type
02:02PM 35.4342 -97.6503 312° West 209 241 3,900  Level Fort Worth Center
02:03PM 35.3875 -97.7133 228° Southwest 278 320 7,900 3,060 Climbing Fort Worth Center
02:04PM 35.1520 -97.5449 172° South  Level Estimated
02:04PM 35.3161 -97.6986 170° South 298 343 10,300  Level Fort Worth Center
02:05PM 35.0702 -97.5477 182° South  Level FlightAware Approximate
02:05PM 35.2172 -97.6583 162° South 378 435 12,700  Level Fort Worth Center
02:06PM 34.9900 -97.5284 168° South  Level Estimated
02:06PM 35.0908 -97.6089 162° South 400 460 16,100  Level Fort Worth Center
02:07PM 34.9019 -97.5072 180° South  Level Estimated
02:07PM 34.9764 -97.5664 163° South 426 490 19,000  Level Fort Worth Center
02:08PM 34.8642 -97.5411 170° South 416 479 21,600 1,920 Climbing Fort Worth Center
02:09PM 34.7247 -97.5217 173° South 420 483 23,000 660 Climbing Fort Worth Center
02:10PM 34.6111 -97.5047 173° South 417 480 23,000  Level Fort Worth Center
02:11PM 34.4969 -97.4900 174° South 416 479 23,000  Level Fort Worth Center
02:12PM 34.3825 -97.4731 173° South 415 478 23,000  Level Fort Worth Center
02:13PM 34.2733 -97.4817 184° South 401 461 23,000  Level Fort Worth Center
02:14PM 34.1606 -97.5353 201° Southwest 376 433 23,000 -900 Level Fort Worth Center
02:15PM 34.0628 -97.5808 201° Southwest 362 417 21,200 -1,620 Descending Fort Worth Center
02:16PM 33.9669 -97.6250 201° Southwest 350 403 19,700 -1,560 Descending Fort Worth Center
02:18PM 33.8822 -97.6636 201° Southwest 342 394 18,000 -1,560 Descending Fort Worth Center
02:19PM 33.7836 -97.6678 182° South 346 398 16,500 -1,560 Descending Fort Worth Center
02:20PM 33.6861 -97.6506 172° South 340 391 14,800 -1,740 Descending Fort Worth Center
02:21PM 33.5919 -97.6161 163° South 338 389 13,000 -1,560 Descending Fort Worth Center
02:22PM 33.4994 -97.5883 166° South 338 389 11,600 -960 Descending Fort Worth Center
02:23PM 33.3989 -97.5572 166° South 346 398 11,000 -360 Descending Fort Worth Center
02:24PM 33.3167 -97.5333 166° South 316 364 11,000  Level Dallas / Fort Worth TRACON
02:25PM 33.2500 -97.4667 140° Southeast 331 381 11,000  Level Dallas / Fort Worth TRACON
02:26PM 33.1833 -97.4000 140° Southeast 327 376 11,000  Level Dallas / Fort Worth TRACON
02:27PM 33.1167 -97.3333 140° Southeast 327 376 11,000  Level Dallas / Fort Worth TRACON
02:28PM 33.0500 -97.2500 134° Southeast 316 364 11,000 -120 Level Dallas / Fort Worth TRACON
02:29PM 33.0000 -97.1833 132° Southeast 280 322 10,800 -840 Descending Dallas / Fort Worth TRACON
02:30PM 32.9167 -97.1667 170° South 260 299 9,300 -1,560 Descending Dallas / Fort Worth TRACON
02:31PM 32.8500 -97.1667 180° South 243 280 7,700 -1,860 Descending Dallas / Fort Worth TRACON
02:32PM 32.7833 -97.1667 180° South 233 268 5,800 -2,040 Descending Dallas / Fort Worth TRACON
02:33PM 32.7167 -97.1667 180° South 227 261 3,700 -1,380 Descending Dallas / Fort Worth TRACON
02:34PM 32.6667 -97.1500 164° South 178 205 3,000 -360 Descending Dallas / Fort Worth TRACON
02:35PM 32.6667 -97.0833 90° East 176 203 3,000  Level Dallas / Fort Worth TRACON
02:36PM 32.7000 -97.0500 40° Northeast 175 201 3,000  Level Dallas / Fort Worth TRACON
02:37PM 32.7500 -97.0500 360° North 170 196 3,000 -420 Level Dallas / Fort Worth TRACON
02:38PM 32.8000 -97.0500 360° North 169 194 2,200 -720 Descending Dallas / Fort Worth TRACON
02:39PM 32.8333 -97.0500 360° North 134 154 1,600 -720 Descending Dallas / Fort Worth TRACON
02:40PM 32.8667 -97.0500 360° North 132 152 700 -840 Descending Dallas / Fort Worth TRACON